createdAt,value
2023-01-22T00:01:18.175Z,101829.16
2023-01-22T00:03:46.765Z,101835.28
2023-01-22T00:06:15.052Z,101845.41
2023-01-22T00:08:42.967Z,101834.03
2023-01-22T00:11:11.491Z,101839.97
2023-01-22T00:13:38.775Z,101836.41
2023-01-22T00:16:06.617Z,101837.19
2023-01-22T00:18:34.396Z,101837.19
2023-01-22T00:21:01.412Z,101838.00
2023-01-22T00:23:28.375Z,101839.69
2023-01-22T00:26:06.806Z,101836.09
2023-01-22T00:28:33.994Z,101840.16
2023-01-22T00:31:02.982Z,101832.34
2023-01-22T00:33:30.535Z,101835.78
2023-01-22T00:36:04.608Z,101832.34
2023-01-22T00:38:31.747Z,101830.38
2023-01-22T00:41:07.731Z,101823.34
2023-01-22T00:43:38.670Z,101830.28
2023-01-22T00:46:07.552Z,101833.63
2023-01-22T00:48:35.096Z,101840.56
2023-01-22T00:51:02.107Z,101841.47
2023-01-22T00:53:29.241Z,101838.09
2023-01-22T00:56:00.147Z,101832.16
2023-01-22T00:58:28.329Z,101833.94
2023-01-22T01:00:55.879Z,101828.69
2023-01-22T01:03:30.476Z,101827.91
2023-01-22T01:05:59.936Z,101838.00
2023-01-22T01:08:29.553Z,101841.38
2023-01-22T01:11:02.531Z,101834.44
2023-01-22T01:13:33.338Z,101835.22
2023-01-22T01:16:07.267Z,101840.38
2023-01-22T01:18:35.791Z,101841.38
2023-01-22T01:21:04.858Z,101838.09
2023-01-22T01:23:31.797Z,101842.56
2023-01-22T01:25:58.865Z,101841.56
2023-01-22T01:28:28.839Z,101843.34
2023-01-22T01:30:55.998Z,101843.47
2023-01-22T01:33:23.013Z,101848.50
2023-01-22T01:35:49.994Z,101845.94
2023-01-22T01:38:16.936Z,101844.94
2023-01-22T01:40:44.627Z,101857.03
2023-01-22T01:43:16.214Z,101850.28
2023-01-22T01:45:43.566Z,101847.88
2023-01-22T01:48:39.053Z,101850.47
2023-01-22T01:51:15.603Z,101855.50
2023-01-22T01:53:46.386Z,101863.16
2023-01-22T01:56:21.231Z,101864.91
2023-01-22T01:58:51.426Z,101859.06
2023-01-22T02:01:19.595Z,101857.41
2023-01-22T02:03:47.835Z,101873.75
2023-01-22T02:06:17.777Z,101867.59
2023-01-22T02:08:48.335Z,101873.53
2023-01-22T02:11:18.513Z,101874.25
2023-01-22T02:14:17.817Z,101879.41
2023-01-22T02:16:45.228Z,101870.88
2023-01-22T02:19:12.175Z,101874.25
2023-01-22T02:21:44.460Z,101879.41
2023-01-22T02:24:17.228Z,101870.97
2023-01-22T02:26:45.800Z,101887.31
2023-01-22T02:29:14.404Z,101881.47
2023-01-22T02:31:42.760Z,101872.16
2023-01-22T02:34:11.198Z,101874.84
2023-01-22T02:36:39.851Z,101872.25
2023-01-22T02:39:07.352Z,101864.53
2023-01-22T02:41:34.304Z,101868.09
2023-01-22T02:44:02.202Z,101865.63
2023-01-22T02:46:30.399Z,101865.53
2023-01-22T02:48:57.501Z,101874.16
2023-01-22T02:51:26.631Z,101870.78
2023-01-22T02:53:54.156Z,101864.84
2023-01-22T02:56:22.252Z,101875.94
2023-01-22T02:58:49.240Z,101871.47
2023-01-22T03:01:23.279Z,101876.63
2023-01-22T03:03:55.753Z,101862.75
2023-01-22T03:06:26.850Z,101860.75
2023-01-22T03:08:57.508Z,101878.78
2023-01-22T03:11:27.642Z,101887.41
2023-01-22T03:14:14.563Z,101877.91
2023-01-22T03:17:02.315Z,101888.09
2023-01-22T03:19:48.062Z,101891.38
2023-01-22T03:22:16.215Z,101884.56
2023-01-22T03:24:45.187Z,101889.81
2023-01-22T03:27:12.131Z,101898.59
2023-01-22T03:29:39.097Z,101893.44
2023-01-22T03:32:06.733Z,101891.66
2023-01-22T03:34:34.181Z,101895.03
2023-01-22T03:37:01.137Z,101890.59
2023-01-22T03:39:28.364Z,101894.84
2023-01-22T03:41:55.305Z,101900.19
2023-01-22T03:44:22.416Z,101896.72
2023-01-22T03:46:49.930Z,101890.59
2023-01-22T03:49:17.113Z,101895.94
2023-01-22T03:51:44.477Z,101891.66
2023-01-22T03:54:12.852Z,101894.34
2023-01-22T03:56:40.166Z,101900.38
2023-01-22T03:59:07.281Z,101897.81
2023-01-22T04:01:35.058Z,101896.03
2023-01-22T04:04:03.674Z,101898.59
2023-01-22T04:06:30.748Z,101898.72
2023-01-22T04:08:57.843Z,101897.81
2023-01-22T04:11:24.942Z,101896.13
2023-01-22T04:13:51.913Z,101906.75
2023-01-22T04:16:18.918Z,101899.59
2023-01-22T04:18:45.850Z,101905.31
2023-01-22T04:21:13.168Z,101908.63
2023-01-22T04:23:40.142Z,101909.59
2023-01-22T04:26:07.152Z,101920.09
2023-01-22T04:28:34.137Z,101913.25
2023-01-22T04:31:01.300Z,101923.66
2023-01-22T04:33:28.302Z,101918.63
2023-01-22T04:35:56.031Z,101908.31
2023-01-22T04:38:23.180Z,101916.03
2023-01-22T04:40:50.487Z,101918.53
2023-01-22T04:43:17.408Z,101913.38
2023-01-22T04:45:44.425Z,101927.03
2023-01-22T04:48:12.652Z,101916.84
2023-01-22T04:50:39.768Z,101916.84
2023-01-22T04:53:06.954Z,101928.81
2023-01-22T04:55:33.952Z,101929.72
2023-01-22T04:58:02.296Z,101932.28
2023-01-22T05:00:30.413Z,101937.53
2023-01-22T05:02:59.668Z,101940.22
2023-01-22T05:05:28.067Z,101954.56
2023-01-22T05:07:55.246Z,101945.84
2023-01-22T05:10:22.951Z,101949.03
2023-01-22T05:12:50.354Z,101949.81
2023-01-22T05:15:24.418Z,101959.34
2023-01-22T05:17:53.522Z,101961.09
2023-01-22T05:20:21.565Z,101955.94
2023-01-22T05:22:49.610Z,101962.00
2023-01-22T05:25:16.634Z,101966.16
2023-01-22T05:27:44.173Z,101974.88
2023-01-22T05:30:13.119Z,101971.31
2023-01-22T05:32:40.206Z,101983.09
2023-01-22T05:35:07.545Z,101976.06
2023-01-22T05:37:34.755Z,101976.84
2023-01-22T05:40:01.992Z,101975.84
2023-01-22T05:42:29.050Z,101981.78
2023-01-22T05:44:55.965Z,101974.72
2023-01-22T05:47:22.944Z,101983.34
2023-01-22T05:49:49.860Z,101986.81
2023-01-22T05:52:16.871Z,101989.41
2023-01-22T05:54:43.762Z,101995.31
2023-01-22T05:57:10.827Z,101989.41
2023-01-22T05:59:37.950Z,101997.34
2023-01-22T06:02:04.927Z,102003.25
2023-01-22T06:04:31.896Z,101999.91
2023-01-22T06:06:58.903Z,101995.31
2023-01-22T06:09:25.843Z,102010.69
2023-01-22T06:11:52.760Z,102012.47
2023-01-22T06:14:19.810Z,102005.56
2023-01-22T06:16:46.948Z,102017.53
2023-01-22T06:19:13.910Z,102014.84
2023-01-22T06:21:43.612Z,102021.78
2023-01-22T06:24:11.155Z,102022.69
2023-01-22T06:26:38.407Z,102023.56
2023-01-22T06:29:05.685Z,102021.88
2023-01-22T06:31:32.837Z,102020.19
2023-01-22T06:34:00.015Z,102016.94
2023-01-22T06:36:27.447Z,102019.50
2023-01-22T06:38:54.366Z,102017.81
2023-01-22T06:41:21.372Z,102021.19
2023-01-22T06:43:48.408Z,102021.19
2023-01-22T06:46:15.754Z,102031.69
2023-01-22T06:48:43.738Z,102030.13
2023-01-22T06:51:11.111Z,102025.09
2023-01-22T06:53:38.764Z,102025.97
2023-01-22T06:56:06.612Z,102027.66
2023-01-22T06:58:33.582Z,102026.88
2023-01-22T07:01:03.205Z,102029.66
2023-01-22T07:03:30.411Z,102031.44
2023-01-22T07:06:02.770Z,102029.72
2023-01-22T07:08:32.230Z,102027.25
2023-01-22T07:10:59.954Z,102030.56
2023-01-22T07:13:27.063Z,102035.69
2023-01-22T07:15:54.056Z,102030.44
2023-01-22T07:18:23.795Z,102037.38
2023-01-22T07:20:51.320Z,102048.66
2023-01-22T07:23:18.441Z,102050.44
2023-01-22T07:25:45.962Z,102056.69
2023-01-22T07:28:15.046Z,102069.56
2023-01-22T07:30:43.915Z,102067.00
2023-01-22T07:33:11.960Z,102079.88
2023-01-22T07:35:39.612Z,102074.72
2023-01-22T07:38:07.178Z,102078.19
2023-01-22T07:40:34.968Z,102086.13
2023-01-22T07:43:07.001Z,102083.00
2023-01-22T07:45:35.176Z,102088.53
2023-01-22T07:48:02.675Z,102093.91
2023-01-22T07:50:31.892Z,102093.91
2023-01-22T07:53:00.704Z,102090.53
2023-01-22T07:55:28.502Z,102093.13
2023-01-22T07:58:05.781Z,102110.47
2023-01-22T08:00:35.354Z,102099.38
2023-01-22T08:03:05.386Z,102110.59
2023-01-22T08:05:33.001Z,102110.59
2023-01-22T08:07:59.967Z,102112.25
2023-01-22T08:10:26.983Z,102108.91
2023-01-22T08:12:54.005Z,102107.31
2023-01-22T08:15:21.242Z,102109.00
2023-01-22T08:17:50.452Z,102113.25
2023-01-22T08:20:18.403Z,102109.00
2023-01-22T08:22:45.685Z,102098.88
2023-01-22T08:25:12.749Z,102111.28
2023-01-22T08:27:39.820Z,102115.88
2023-01-22T08:30:08.777Z,102119.13
2023-01-22T08:32:35.826Z,102119.03
2023-01-22T08:35:02.783Z,102117.03
2023-01-22T08:37:29.731Z,102123.75
2023-01-22T08:39:56.691Z,102111.75
2023-01-22T08:42:23.725Z,102128.13
2023-01-22T08:44:50.687Z,102139.31
2023-01-22T08:47:17.611Z,102135.94
2023-01-22T08:49:44.605Z,102128.34
2023-01-22T08:52:11.554Z,102133.69
2023-01-22T08:54:38.515Z,102131.44
2023-01-22T08:57:05.481Z,102131.63
2023-01-22T08:59:32.436Z,102140.34
2023-01-22T09:02:00.218Z,102147.31
2023-01-22T09:04:27.837Z,102154.13
2023-01-22T09:06:55.356Z,102158.28
2023-01-22T09:09:23.065Z,102163.34
2023-01-22T09:11:50.117Z,102162.66
2023-01-22T09:14:17.017Z,102166.34
2023-01-22T09:16:44.118Z,102158.16
2023-01-22T09:19:12.037Z,102178.75
2023-01-22T09:21:39.081Z,102179.56
2023-01-22T09:24:07.468Z,102168.56
2023-01-22T09:26:36.807Z,102178.16
2023-01-22T09:29:05.911Z,102176.38
2023-01-22T09:31:35.492Z,102179.66
2023-01-22T09:34:03.404Z,102181.34
2023-01-22T09:36:30.817Z,102177.66
2023-01-22T09:38:57.947Z,102185.28
2023-01-22T09:41:37.444Z,102187.97
2023-01-22T09:44:13.058Z,102192.34
2023-01-22T09:46:53.633Z,102193.34
2023-01-22T09:49:37.087Z,102193.34
2023-01-22T09:52:06.289Z,102201.19
2023-01-22T09:54:33.609Z,102195.13
2023-01-22T09:57:05.459Z,102188.19
2023-01-22T09:59:55.521Z,102185.38
2023-01-22T10:02:53.263Z,102204.31
2023-01-22T10:05:30.189Z,102192.34
2023-01-22T10:08:19.740Z,102187.06
2023-01-22T10:10:47.129Z,102188.28
2023-01-22T10:13:28.376Z,102190.88
2023-01-22T10:15:56.755Z,102200.38
2023-01-22T10:18:48.586Z,102195.91
2023-01-22T10:21:28.533Z,102189.38
2023-01-22T10:23:58.094Z,102196.63
2023-01-22T10:26:49.232Z,102199.22
2023-01-22T10:29:25.580Z,102185.44
2023-01-22T10:31:56.692Z,102194.47
2023-01-22T10:34:31.277Z,102185.66
2023-01-22T10:37:03.936Z,102193.72
2023-01-22T10:39:50.706Z,102192.31
2023-01-22T10:42:24.073Z,102194.09
2023-01-22T10:45:09.277Z,102195.91
2023-01-22T10:47:36.211Z,102199.16
2023-01-22T10:50:14.714Z,102199.94
2023-01-22T10:52:54.753Z,102194.09
2023-01-22T10:55:30.175Z,102190.72
2023-01-22T10:58:06.389Z,102183.22
2023-01-22T11:00:50.590Z,102179.31
2023-01-22T11:03:39.686Z,102173.78
2023-01-22T11:06:29.300Z,102181.75
2023-01-22T11:09:15.891Z,102179.06
2023-01-22T11:11:51.021Z,102187.06
2023-01-22T11:14:28.717Z,102187.16
2023-01-22T11:17:05.302Z,102192.53
2023-01-22T11:19:43.611Z,102186.38
2023-01-22T11:22:26.829Z,102196.47
2023-01-22T11:24:54.144Z,102202.34
2023-01-22T11:27:56.373Z,102193.41
2023-01-22T11:30:49.345Z,102193.50
2023-01-22T11:34:02.201Z,102191.72
2023-01-22T11:36:53.198Z,102196.53
2023-01-22T11:39:41.893Z,102194.81
2023-01-22T11:42:29.734Z,102190.38
2023-01-22T11:45:31.345Z,102194.53
2023-01-22T11:48:16.354Z,102187.97
2023-01-22T11:51:16.762Z,102189.69
2023-01-22T11:53:43.651Z,102191.06
2023-01-22T11:56:37.408Z,102185.41
2023-01-22T11:59:37.305Z,102187.38
2023-01-22T12:02:23.018Z,102180.53
2023-01-22T12:05:17.220Z,102183.22
2023-01-22T12:08:02.632Z,102185.00
2023-01-22T12:10:55.972Z,102188.00
2023-01-22T12:13:53.274Z,102185.81
2023-01-22T12:16:45.483Z,102186.38
2023-01-22T12:19:32.500Z,102188.59
2023-01-22T12:22:30.716Z,102188.28
2023-01-22T12:25:29.431Z,102195.91
2023-01-22T12:28:15.912Z,102191.38
2023-01-22T12:30:59.235Z,102200.84
2023-01-22T12:33:34.850Z,102192.16
2023-01-22T12:36:04.607Z,102190.53
2023-01-22T12:39:08.575Z,102192.53
2023-01-22T12:42:22.842Z,102188.00
2023-01-22T12:45:08.405Z,102185.22
2023-01-22T12:48:30.558Z,102184.81
2023-01-22T12:50:58.710Z,102186.31
2023-01-22T12:53:34.820Z,102194.34
2023-01-22T12:56:10.817Z,102194.13
2023-01-22T12:58:41.051Z,102196.03
2023-01-22T13:01:24.897Z,102197.44
2023-01-22T13:04:05.178Z,102200.59
2023-01-22T13:06:37.168Z,102197.50
2023-01-22T13:09:07.170Z,102199.91
2023-01-22T13:11:41.325Z,102199.69
2023-01-22T13:14:26.829Z,102193.41
2023-01-22T13:17:03.692Z,102184.56
2023-01-22T13:19:47.220Z,102202.25
2023-01-22T13:22:26.340Z,102196.75
2023-01-22T13:24:58.815Z,102202.41
2023-01-22T13:27:34.277Z,102207.56
2023-01-22T13:30:19.248Z,102199.72
2023-01-22T13:32:46.354Z,102203.69
2023-01-22T13:35:17.767Z,102204.03
2023-01-22T13:37:51.553Z,102207.22
2023-01-22T13:40:29.251Z,102213.97
2023-01-22T13:42:58.919Z,102202.16
2023-01-22T13:45:30.374Z,102205.53
2023-01-22T13:48:04.066Z,102209.59
2023-01-22T13:50:31.703Z,102206.13
2023-01-22T13:53:02.256Z,102193.50
2023-01-22T13:55:30.392Z,102195.31
2023-01-22T13:58:02.254Z,102200.56
2023-01-22T14:00:34.695Z,102215.25
2023-01-22T14:03:02.849Z,102200.56
2023-01-22T14:05:34.091Z,102216.81
2023-01-22T14:08:27.131Z,102225.34
2023-01-22T14:11:00.830Z,102218.44
2023-01-22T14:13:27.902Z,102225.28
2023-01-22T14:16:01.974Z,102224.56
2023-01-22T14:18:29.627Z,102238.47
2023-01-22T14:20:56.622Z,102227.47
2023-01-22T14:23:23.628Z,102227.34
2023-01-22T14:25:54.442Z,102239.13
2023-01-22T14:28:23.360Z,102236.56
2023-01-22T14:30:51.521Z,102235.47
2023-01-22T14:33:25.584Z,102238.94
2023-01-22T14:35:54.042Z,102239.06
2023-01-22T14:38:21.808Z,102235.59
2023-01-22T14:40:49.371Z,102248.25
2023-01-22T14:43:16.605Z,102237.72
2023-01-22T14:45:45.634Z,102235.16
2023-01-22T14:48:17.373Z,102247.47
2023-01-22T14:50:44.491Z,102247.75
2023-01-22T14:53:13.177Z,102242.81
2023-01-22T14:55:42.664Z,102243.16
2023-01-22T14:58:10.495Z,102244.03
2023-01-22T15:03:05.734Z,102244.44
2023-01-22T15:05:35.346Z,102248.63
2023-01-22T15:08:03.102Z,102254.34
2023-01-22T15:10:30.153Z,102261.31
2023-01-22T15:12:57.099Z,102256.81
2023-01-22T15:15:28.670Z,102248.09
2023-01-22T15:17:57.333Z,102256.00
2023-01-22T15:20:25.129Z,102266.53
2023-01-22T15:22:52.424Z,102259.47
2023-01-22T15:25:19.426Z,102260.13
2023-01-22T15:27:46.604Z,102266.31
2023-01-22T15:30:14.726Z,102276.72
2023-01-22T15:32:41.694Z,102263.03
2023-01-22T15:35:09.411Z,102273.44
2023-01-22T15:37:36.335Z,102274.44
2023-01-22T15:40:04.316Z,102276.13
2023-01-22T15:42:31.375Z,102278.41
2023-01-22T15:44:58.538Z,102286.13
2023-01-22T15:47:25.474Z,102289.59
2023-01-22T15:49:52.400Z,102290.41
2023-01-22T15:52:19.420Z,102299.03
2023-01-22T15:54:46.381Z,102300.25
2023-01-22T15:57:14.294Z,102300.16
2023-01-22T15:59:42.217Z,102308.69
2023-01-22T16:02:12.545Z,102313.16
2023-01-22T16:04:39.487Z,102315.16
2023-01-22T16:07:06.451Z,102312.91
2023-01-22T16:09:33.891Z,102311.66
2023-01-22T16:12:00.859Z,102303.81
2023-01-22T16:14:29.239Z,102313.81
2023-01-22T16:16:56.347Z,102310.91
2023-01-22T16:19:23.467Z,102306.31
2023-01-22T16:21:52.382Z,102307.09
2023-01-22T16:24:19.406Z,102313.72
2023-01-22T16:26:46.358Z,102310.34
2023-01-22T16:29:13.470Z,102321.66
2023-01-22T16:31:40.857Z,102325.16
2023-01-22T16:34:15.103Z,102320.22
2023-01-22T16:36:43.626Z,102333.22
2023-01-22T16:39:23.050Z,102326.03
2023-01-22T16:41:52.269Z,102324.25
2023-01-22T16:44:27.217Z,102331.31
2023-01-22T16:46:57.595Z,102342.75
2023-01-22T16:49:30.624Z,102331.94
2023-01-22T16:52:20.588Z,102337.53
2023-01-22T16:54:49.414Z,102345.28
2023-01-22T16:57:16.540Z,102345.16
2023-01-22T16:59:43.743Z,102345.28
2023-01-22T17:02:16.573Z,102351.31
2023-01-22T17:04:44.758Z,102344.50
2023-01-22T17:07:27.272Z,102346.94
2023-01-22T17:09:59.014Z,102347.53
2023-01-22T17:12:26.531Z,102350.31
2023-01-22T17:14:53.519Z,102355.59
2023-01-22T17:17:20.587Z,102351.09
2023-01-22T17:19:47.495Z,102364.56
2023-01-22T17:22:14.816Z,102361.56
2023-01-22T17:24:41.947Z,102362.81
2023-01-22T17:27:09.048Z,102363.41
2023-01-22T17:29:36.350Z,102370.41
2023-01-22T17:32:04.297Z,102373.09
2023-01-22T17:34:31.840Z,102375.56
2023-01-22T17:36:58.883Z,102372.09
2023-01-22T17:39:26.154Z,102374.69
2023-01-22T17:41:53.205Z,102374.59
2023-01-22T17:44:20.485Z,102372.03
2023-01-22T17:46:49.120Z,102378.84
2023-01-22T17:49:16.723Z,102376.94
2023-01-22T17:51:43.753Z,102377.84
2023-01-22T17:54:10.793Z,102388.16
2023-01-22T17:56:47.254Z,102394.22
2023-01-22T17:59:15.050Z,102394.22
2023-01-22T18:01:42.155Z,102381.88
2023-01-22T18:04:12.732Z,102396.56
2023-01-22T18:06:41.981Z,102389.63
2023-01-22T18:09:10.659Z,102392.19
2023-01-22T18:11:39.086Z,102398.25
2023-01-22T18:14:15.838Z,102401.72
2023-01-22T18:16:43.745Z,102389.63
2023-01-22T18:19:11.017Z,102403.06
2023-01-22T18:21:39.195Z,102398.69
2023-01-22T18:24:08.844Z,102398.91
2023-01-22T18:26:37.068Z,102413.47
2023-01-22T18:29:05.885Z,102404.06
2023-01-22T18:31:33.443Z,102418.06
2023-01-22T18:34:03.780Z,102413.94
2023-01-22T18:36:35.468Z,102408.00
2023-01-22T18:39:10.526Z,102413.34
2023-01-22T18:41:37.874Z,102415.84
2023-01-22T18:44:05.084Z,102418.50
2023-01-22T18:46:36.742Z,102416.94
2023-01-22T18:49:07.678Z,102417.50
2023-01-22T18:51:34.786Z,102420.09
2023-01-22T18:54:05.231Z,102419.75
2023-01-22T18:56:32.543Z,102412.13
2023-01-22T18:59:00.005Z,102412.91
2023-01-22T19:01:30.348Z,102411.00
2023-01-22T19:04:04.825Z,102412.56
2023-01-22T19:06:37.202Z,102417.72
2023-01-22T19:09:12.263Z,102410.13
2023-01-22T19:11:42.445Z,102412.03
2023-01-22T19:14:13.803Z,102416.63
2023-01-22T19:16:44.696Z,102411.47
2023-01-22T19:19:13.601Z,102422.88
2023-01-22T19:21:47.665Z,102425.34
2023-01-22T19:24:18.573Z,102424.53
2023-01-22T19:26:46.838Z,102422.56
2023-01-22T19:29:19.491Z,102422.34
2023-01-22T19:31:51.814Z,102416.94
2023-01-22T19:34:25.420Z,102407.31
2023-01-22T19:37:02.271Z,102414.25
2023-01-22T19:39:30.464Z,102419.97
2023-01-22T19:42:01.718Z,102413.84
2023-01-22T19:44:30.201Z,102421.69
2023-01-22T19:46:57.355Z,102438.13
2023-01-22T19:49:24.319Z,102430.38
2023-01-22T19:51:51.302Z,102433.06
2023-01-22T19:54:19.015Z,102437.56
2023-01-22T19:56:46.011Z,102449.91
2023-01-22T19:59:19.181Z,102442.28
2023-01-22T20:01:48.535Z,102454.38
2023-01-22T20:04:29.777Z,102445.88
2023-01-22T20:07:00.595Z,102454.69
2023-01-22T20:09:29.320Z,102451.34
2023-01-22T20:11:58.114Z,102459.06
2023-01-22T20:14:39.097Z,102466.69
2023-01-22T20:17:06.350Z,102471.94
2023-01-22T20:19:33.498Z,102477.00
2023-01-22T20:22:03.190Z,102478.00
2023-01-22T20:24:30.245Z,102487.75
2023-01-22T20:26:58.635Z,102481.03
2023-01-22T20:29:26.101Z,102477.44
2023-01-22T20:31:54.307Z,102477.34
2023-01-22T20:34:21.843Z,102477.09
2023-01-22T20:36:49.135Z,102478.59
2023-01-22T20:39:16.272Z,102471.66
2023-01-22T20:41:45.715Z,102473.44
2023-01-22T20:44:13.829Z,102470.03
2023-01-22T20:46:43.785Z,102474.31
2023-01-22T20:49:11.852Z,102485.63
2023-01-22T20:51:39.705Z,102482.03
2023-01-22T20:54:06.833Z,102502.56
2023-01-22T20:56:35.455Z,102489.56
2023-01-22T20:59:12.356Z,102496.41
2023-01-22T21:01:39.829Z,102493.16
2023-01-22T21:04:07.125Z,102510.31
2023-01-22T21:06:36.488Z,102493.03
2023-01-22T21:09:05.223Z,102498.97
2023-01-22T21:11:34.595Z,102504.78
2023-01-22T21:14:05.017Z,102516.91
2023-01-22T21:16:35.424Z,102518.59
2023-01-22T21:19:12.349Z,102515.09
2023-01-22T21:21:39.345Z,102518.13
2023-01-22T21:24:06.939Z,102515.78
2023-01-22T21:26:33.926Z,102526.19
2023-01-22T21:29:06.097Z,102527.88
2023-01-22T21:31:33.190Z,102520.94
2023-01-22T21:34:03.424Z,102524.28
2023-01-22T21:36:53.766Z,102529.31
2023-01-22T21:39:24.667Z,102530.22
2023-01-22T21:42:12.357Z,102527.66
2023-01-22T21:44:57.751Z,102519.72
2023-01-22T21:47:24.788Z,102525.75
2023-01-22T21:49:51.734Z,102524.88
2023-01-22T21:52:18.703Z,102529.25
2023-01-22T21:54:45.939Z,102524.09
2023-01-22T21:57:16.115Z,102523.50
2023-01-22T21:59:45.605Z,102520.03
2023-01-22T22:02:15.706Z,102534.59
2023-01-22T22:04:43.064Z,102529.78
2023-01-22T22:07:10.571Z,102537.88
2023-01-22T22:09:37.781Z,102535.19
2023-01-22T22:12:05.919Z,102539.66
2023-01-22T22:14:33.106Z,102534.72
2023-01-22T22:17:00.698Z,102539.88
2023-01-22T22:19:29.006Z,102556.34
2023-01-22T22:21:56.000Z,102541.88
2023-01-22T22:24:23.124Z,102549.75
2023-01-22T22:26:50.148Z,102558.38
2023-01-22T22:29:17.148Z,102553.22
2023-01-22T22:31:44.316Z,102557.47
2023-01-22T22:34:11.429Z,102562.75
2023-01-22T22:36:38.577Z,102556.69
2023-01-22T22:39:06.659Z,102569.72
2023-01-22T22:41:36.880Z,102562.53
2023-01-22T22:44:04.367Z,102567.69
2023-01-22T22:46:34.910Z,102561.63
2023-01-22T22:49:03.251Z,102564.19
2023-01-22T22:51:36.940Z,102566.13
2023-01-22T22:54:19.239Z,102567.13
2023-01-22T22:56:48.117Z,102575.09
2023-01-22T22:59:16.172Z,102561.06
2023-01-22T23:01:43.381Z,102568.81
2023-01-22T23:04:12.168Z,102566.78
2023-01-22T23:06:39.465Z,102566.91
2023-01-22T23:09:09.181Z,102571.03
2023-01-22T23:11:36.575Z,102567.56
2023-01-22T23:14:04.603Z,102575.53
2023-01-22T23:16:38.350Z,102582.13
2023-01-22T23:19:15.884Z,102569.81
2023-01-22T23:21:43.281Z,102581.94
2023-01-22T23:24:13.815Z,102582.72
2023-01-22T23:26:42.716Z,102577.56
2023-01-22T23:29:14.184Z,102586.84
2023-01-22T23:31:41.462Z,102593.81
2023-01-22T23:34:13.361Z,102591.22
2023-01-22T23:36:44.409Z,102587.16
2023-01-22T23:39:14.340Z,102598.19
2023-01-22T23:41:42.139Z,102597.94
2023-01-22T23:44:09.764Z,102609.94
2023-01-22T23:46:37.047Z,102615.44
2023-01-22T23:49:04.978Z,102617.44
2023-01-22T23:51:32.361Z,102622.59
2023-01-22T23:53:59.331Z,102613.53
2023-01-22T23:56:32.153Z,102618.94
2023-01-22T23:58:59.706Z,102617.03
